sensor_id;sensor_type;location;lat;lon;timestamp;temperature;humidity
10538;DHT22;5317;49.048;8.468;2023-05-21T00:00:08;21.20;68.80
10538;DHT22;5317;49.048;8.468;2023-05-21T00:02:37;21.20;69.00
10538;DHT22;5317;49.048;8.468;2023-05-21T00:05:05;21.10;69.00
10538;DHT22;5317;49.048;8.468;2023-05-21T00:07:34;21.10;69.40
10538;DHT22;5317;49.048;8.468;2023-05-21T00:10:01;21.10;69.50
10538;DHT22;5317;49.048;8.468;2023-05-21T00:12:28;21.10;69.50
10538;DHT22;5317;49.048;8.468;2023-05-21T00:14:56;21.10;69.60
10538;DHT22;5317;49.048;8.468;2023-05-21T00:17:25;21.10;69.80
10538;DHT22;5317;49.048;8.468;2023-05-21T00:19:52;21.10;70.00
10538;DHT22;5317;49.048;8.468;2023-05-21T00:22:19;21.10;70.00
10538;DHT22;5317;49.048;8.468;2023-05-21T00:24:46;21.00;70.00
10538;DHT22;5317;49.048;8.468;2023-05-21T00:27:13;21.00;70.00
10538;DHT22;5317;49.048;8.468;2023-05-21T00:29:40;21.00;70.00
10538;DHT22;5317;49.048;8.468;2023-05-21T00:32:08;21.00;70.10
10538;DHT22;5317;49.048;8.468;2023-05-21T00:34:36;21.00;70.20
10538;DHT22;5317;49.048;8.468;2023-05-21T00:37:03;21.00;71.10
10538;DHT22;5317;49.048;8.468;2023-05-21T00:39:30;20.90;70.20
10538;DHT22;5317;49.048;8.468;2023-05-21T00:41:57;20.90;70.30
10538;DHT22;5317;49.048;8.468;2023-05-21T00:44:25;20.90;70.70
10538;DHT22;5317;49.048;8.468;2023-05-21T00:46:52;20.90;70.90
10538;DHT22;5317;49.048;8.468;2023-05-21T00:49:20;20.90;70.80
10538;DHT22;5317;49.048;8.468;2023-05-21T00:51:50;20.90;70.80
10538;DHT22;5317;49.048;8.468;2023-05-21T00:54:17;20.80;70.70
10538;DHT22;5317;49.048;8.468;2023-05-21T00:56:45;20.80;70.70
10538;DHT22;5317;49.048;8.468;2023-05-21T00:59:12;20.80;70.80
10538;DHT22;5317;49.048;8.468;2023-05-21T01:01:42;20.80;71.00
10538;DHT22;5317;49.048;8.468;2023-05-21T01:04:10;20.70;71.00
10538;DHT22;5317;49.048;8.468;2023-05-21T01:06:37;20.70;71.00
10538;DHT22;5317;49.048;8.468;2023-05-21T01:09:05;20.70;71.90
10538;DHT22;5317;49.048;8.468;2023-05-21T01:11:38;20.70;71.30
10538;DHT22;5317;49.048;8.468;2023-05-21T01:14:06;20.70;71.50
10538;DHT22;5317;49.048;8.468;2023-05-21T01:16:36;20.60;71.40
10538;DHT22;5317;49.048;8.468;2023-05-21T01:19:04;20.60;71.50
10538;DHT22;5317;49.048;8.468;2023-05-21T01:21:33;20.60;71.50
10538;DHT22;5317;49.048;8.468;2023-05-21T01:24:04;20.60;71.60
10538;DHT22;5317;49.048;8.468;2023-05-21T01:26:32;20.60;71.80
10538;DHT22;5317;49.048;8.468;2023-05-21T01:29:03;20.60;71.90
10538;DHT22;5317;49.048;8.468;2023-05-21T01:31:34;20.60;71.90
10538;DHT22;5317;49.048;8.468;2023-05-21T01:34:04;20.60;72.90
10538;DHT22;5317;49.048;8.468;2023-05-21T01:36:38;20.50;72.10
10538;DHT22;5317;49.048;8.468;2023-05-21T01:39:13;20.50;72.40
10538;DHT22;5317;49.048;8.468;2023-05-21T01:41:44;20.50;72.50
10538;DHT22;5317;49.048;8.468;2023-05-21T01:44:12;20.50;72.30
10538;DHT22;5317;49.048;8.468;2023-05-21T01:46:40;20.50;72.40
10538;DHT22;5317;49.048;8.468;2023-05-21T01:49:07;20.40;72.30
10538;DHT22;5317;49.048;8.468;2023-05-21T01:51:35;20.40;72.50
10538;DHT22;5317;49.048;8.468;2023-05-21T01:54:03;20.40;72.60
10538;DHT22;5317;49.048;8.468;2023-05-21T01:56:31;20.40;72.70
10538;DHT22;5317;49.048;8.468;2023-05-21T01:58:59;20.40;72.80
10538;DHT22;5317;49.048;8.468;2023-05-21T02:01:25;20.40;72.80
10538;DHT22;5317;49.048;8.468;2023-05-21T02:03:54;20.40;72.90
10538;DHT22;5317;49.048;8.468;2023-05-21T02:06:22;20.30;73.00
10538;DHT22;5317;49.048;8.468;2023-05-21T02:08:49;20.30;73.00
10538;DHT22;5317;49.048;8.468;2023-05-21T02:11:16;20.30;73.10
10538;DHT22;5317;49.048;8.468;2023-05-21T02:13:44;20.30;73.10
10538;DHT22;5317;49.048;8.468;2023-05-21T02:16:11;20.30;73.10
10538;DHT22;5317;49.048;8.468;2023-05-21T02:18:39;20.30;73.10
10538;DHT22;5317;49.048;8.468;2023-05-21T02:21:08;20.30;73.10
10538;DHT22;5317;49.048;8.468;2023-05-21T02:23:37;20.20;73.00
10538;DHT22;5317;49.048;8.468;2023-05-21T02:26:04;20.20;73.20
10538;DHT22;5317;49.048;8.468;2023-05-21T02:28:33;20.20;73.40
10538;DHT22;5317;49.048;8.468;2023-05-21T02:31:02;20.20;73.40
10538;DHT22;5317;49.048;8.468;2023-05-21T02:33:28;20.20;73.60
10538;DHT22;5317;49.048;8.468;2023-05-21T02:35:55;20.10;73.50
10538;DHT22;5317;49.048;8.468;2023-05-21T02:38:22;20.20;73.60
10538;DHT22;5317;49.048;8.468;2023-05-21T02:40:50;20.10;73.50
10538;DHT22;5317;49.048;8.468;2023-05-21T02:43:17;20.10;73.60
10538;DHT22;5317;49.048;8.468;2023-05-21T02:45:44;20.10;73.80
10538;DHT22;5317;49.048;8.468;2023-05-21T02:48:13;20.00;73.90
10538;DHT22;5317;49.048;8.468;2023-05-21T02:50:40;20.00;73.90
10538;DHT22;5317;49.048;8.468;2023-05-21T02:53:07;20.00;73.80
10538;DHT22;5317;49.048;8.468;2023-05-21T02:55:34;20.00;74.50
10538;DHT22;5317;49.048;8.468;2023-05-21T02:58:00;19.90;73.70
10538;DHT22;5317;49.048;8.468;2023-05-21T03:00:27;19.90;73.80
10538;DHT22;5317;49.048;8.468;2023-05-21T03:02:54;19.90;73.70
10538;DHT22;5317;49.048;8.468;2023-05-21T03:05:22;19.80;73.80
10538;DHT22;5317;49.048;8.468;2023-05-21T03:07:49;19.80;74.00
10538;DHT22;5317;49.048;8.468;2023-05-21T03:10:18;19.80;74.10
10538;DHT22;5317;49.048;8.468;2023-05-21T03:12:44;19.70;74.00
10538;DHT22;5317;49.048;8.468;2023-05-21T03:15:11;19.70;74.10
10538;DHT22;5317;49.048;8.468;2023-05-21T03:17:39;19.60;74.20
10538;DHT22;5317;49.048;8.468;2023-05-21T03:20:09;19.60;74.30
10538;DHT22;5317;49.048;8.468;2023-05-21T03:22:42;19.60;74.40
10538;DHT22;5317;49.048;8.468;2023-05-21T03:25:09;19.50;74.40
10538;DHT22;5317;49.048;8.468;2023-05-21T03:27:38;19.50;74.50
10538;DHT22;5317;49.048;8.468;2023-05-21T03:30:06;19.40;74.50
10538;DHT22;5317;49.048;8.468;2023-05-21T03:32:33;19.40;74.50
10538;DHT22;5317;49.048;8.468;2023-05-21T03:35:02;19.40;74.50
10538;DHT22;5317;49.048;8.468;2023-05-21T03:37:29;19.30;74.60
10538;DHT22;5317;49.048;8.468;2023-05-21T03:39:58;19.30;74.70
10538;DHT22;5317;49.048;8.468;2023-05-21T03:42:25;19.30;74.80
10538;DHT22;5317;49.048;8.468;2023-05-21T03:44:51;19.20;74.80
10538;DHT22;5317;49.048;8.468;2023-05-21T03:47:18;19.20;75.00
10538;DHT22;5317;49.048;8.468;2023-05-21T03:49:45;19.20;75.70
10538;DHT22;5317;49.048;8.468;2023-05-21T03:52:12;19.20;74.90
10538;DHT22;5317;49.048;8.468;2023-05-21T03:54:39;19.20;75.00
10538;DHT22;5317;49.048;8.468;2023-05-21T03:57:07;19.10;74.80
10538;DHT22;5317;49.048;8.468;2023-05-21T03:59:34;19.10;74.90
10538;DHT22;5317;49.048;8.468;2023-05-21T04:02:02;19.10;74.90
10538;DHT22;5317;49.048;8.468;2023-05-21T04:04:29;19.10;75.00
10538;DHT22;5317;49.048;8.468;2023-05-21T04:06:58;19.10;75.00
10538;DHT22;5317;49.048;8.468;2023-05-21T04:09:25;19.10;75.10
10538;DHT22;5317;49.048;8.468;2023-05-21T04:11:53;19.00;75.00
10538;DHT22;5317;49.048;8.468;2023-05-21T04:14:22;19.00;75.10
10538;DHT22;5317;49.048;8.468;2023-05-21T04:16:49;19.00;75.10
10538;DHT22;5317;49.048;8.468;2023-05-21T04:19:15;19.00;75.00
10538;DHT22;5317;49.048;8.468;2023-05-21T04:21:42;19.00;75.00
10538;DHT22;5317;49.048;8.468;2023-05-21T04:24:09;19.00;74.90
10538;DHT22;5317;49.048;8.468;2023-05-21T04:26:36;19.00;75.00
10538;DHT22;5317;49.048;8.468;2023-05-21T04:29:06;18.90;74.70
10538;DHT22;5317;49.048;8.468;2023-05-21T04:31:35;18.90;74.80
10538;DHT22;5317;49.048;8.468;2023-05-21T04:34:02;18.90;74.80
10538;DHT22;5317;49.048;8.468;2023-05-21T04:36:29;18.90;74.80
10538;DHT22;5317;49.048;8.468;2023-05-21T04:38:59;18.90;75.00
10538;DHT22;5317;49.048;8.468;2023-05-21T04:41:26;18.90;75.10
10538;DHT22;5317;49.048;8.468;2023-05-21T04:43:53;18.90;75.00
10538;DHT22;5317;49.048;8.468;2023-05-21T04:46:20;18.90;75.10
10538;DHT22;5317;49.048;8.468;2023-05-21T04:48:51;18.90;75.90
10538;DHT22;5317;49.048;8.468;2023-05-21T04:51:19;18.90;75.90
10538;DHT22;5317;49.048;8.468;2023-05-21T04:53:47;18.90;75.10
10538;DHT22;5317;49.048;8.468;2023-05-21T04:56:15;18.90;75.10
10538;DHT22;5317;49.048;8.468;2023-05-21T04:58:43;18.90;75.10
10538;DHT22;5317;49.048;8.468;2023-05-21T05:01:10;19.00;75.20
10538;DHT22;5317;49.048;8.468;2023-05-21T05:03:37;19.00;75.20
10538;DHT22;5317;49.048;8.468;2023-05-21T05:06:05;19.00;75.20
10538;DHT22;5317;49.048;8.468;2023-05-21T05:08:33;19.00;75.50
10538;DHT22;5317;49.048;8.468;2023-05-21T05:11:00;19.10;75.80
10538;DHT22;5317;49.048;8.468;2023-05-21T05:13:27;19.10;75.80
10538;DHT22;5317;49.048;8.468;2023-05-21T05:15:54;19.20;75.90
10538;DHT22;5317;49.048;8.468;2023-05-21T05:18:23;19.20;76.00
10538;DHT22;5317;49.048;8.468;2023-05-21T05:20:50;19.30;76.00
10538;DHT22;5317;49.048;8.468;2023-05-21T05:23:18;19.30;76.00
10538;DHT22;5317;49.048;8.468;2023-05-21T05:25:45;19.40;76.00
10538;DHT22;5317;49.048;8.468;2023-05-21T05:28:12;19.40;76.00
10538;DHT22;5317;49.048;8.468;2023-05-21T05:30:39;19.50;76.10
10538;DHT22;5317;49.048;8.468;2023-05-21T05:33:07;19.50;76.00
10538;DHT22;5317;49.048;8.468;2023-05-21T05:35:34;19.60;76.30
10538;DHT22;5317;49.048;8.468;2023-05-21T05:38:01;19.60;76.50
10538;DHT22;5317;49.048;8.468;2023-05-21T05:40:29;19.60;76.50
10538;DHT22;5317;49.048;8.468;2023-05-21T05:42:56;19.70;76.60
10538;DHT22;5317;49.048;8.468;2023-05-21T05:45:23;19.80;76.70
10538;DHT22;5317;49.048;8.468;2023-05-21T05:47:51;20.00;77.10
10538;DHT22;5317;49.048;8.468;2023-05-21T05:50:18;20.10;77.80
10538;DHT22;5317;49.048;8.468;2023-05-21T05:52:45;20.20;76.90
10538;DHT22;5317;49.048;8.468;2023-05-21T05:55:12;20.30;76.90
10538;DHT22;5317;49.048;8.468;2023-05-21T05:57:40;20.40;76.40
10538;DHT22;5317;49.048;8.468;2023-05-21T06:00:08;20.50;76.10
10538;DHT22;5317;49.048;8.468;2023-05-21T06:02:35;20.60;76.30
10538;DHT22;5317;49.048;8.468;2023-05-21T06:05:02;20.70;76.10
10538;DHT22;5317;49.048;8.468;2023-05-21T06:07:31;20.80;75.90
10538;DHT22;5317;49.048;8.468;2023-05-21T06:09:58;20.90;76.20
10538;DHT22;5317;49.048;8.468;2023-05-21T06:12:27;21.00;75.70
10538;DHT22;5317;49.048;8.468;2023-05-21T06:14:55;21.00;75.30
10538;DHT22;5317;49.048;8.468;2023-05-21T06:17:22;21.10;75.00
10538;DHT22;5317;49.048;8.468;2023-05-21T06:19:48;21.20;75.00
10538;DHT22;5317;49.048;8.468;2023-05-21T06:22:15;21.20;74.90
10538;DHT22;5317;49.048;8.468;2023-05-21T06:24:43;21.30;74.70
10538;DHT22;5317;49.048;8.468;2023-05-21T06:27:10;21.40;74.70
10538;DHT22;5317;49.048;8.468;2023-05-21T06:29:37;21.50;74.40
10538;DHT22;5317;49.048;8.468;2023-05-21T06:32:07;21.50;74.20
10538;DHT22;5317;49.048;8.468;2023-05-21T06:34:35;21.60;74.10
10538;DHT22;5317;49.048;8.468;2023-05-21T06:37:02;21.70;73.90
10538;DHT22;5317;49.048;8.468;2023-05-21T06:39:29;21.80;74.20
10538;DHT22;5317;49.048;8.468;2023-05-21T06:41:56;21.90;73.90
10538;DHT22;5317;49.048;8.468;2023-05-21T06:44:23;21.90;73.60
10538;DHT22;5317;49.048;8.468;2023-05-21T06:46:50;21.90;73.50
10538;DHT22;5317;49.048;8.468;2023-05-21T06:49:18;22.00;73.30
10538;DHT22;5317;49.048;8.468;2023-05-21T06:51:45;22.10;73.30
10538;DHT22;5317;49.048;8.468;2023-05-21T06:54:12;22.10;73.10
10538;DHT22;5317;49.048;8.468;2023-05-21T06:56:39;22.20;73.20
10538;DHT22;5317;49.048;8.468;2023-05-21T06:59:06;22.20;73.30
10538;DHT22;5317;49.048;8.468;2023-05-21T07:01:33;22.20;73.00
10538;DHT22;5317;49.048;8.468;2023-05-21T07:04:02;22.30;73.10
10538;DHT22;5317;49.048;8.468;2023-05-21T07:06:30;22.30;73.00
10538;DHT22;5317;49.048;8.468;2023-05-21T07:08:57;22.40;73.10
10538;DHT22;5317;49.048;8.468;2023-05-21T07:11:24;22.40;73.00
10538;DHT22;5317;49.048;8.468;2023-05-21T07:13:53;22.50;72.70
10538;DHT22;5317;49.048;8.468;2023-05-21T07:16:21;22.60;73.00
10538;DHT22;5317;49.048;8.468;2023-05-21T07:18:48;22.60;72.80
10538;DHT22;5317;49.048;8.468;2023-05-21T07:21:15;22.70;73.00
10538;DHT22;5317;49.048;8.468;2023-05-21T07:23:43;22.70;72.90
10538;DHT22;5317;49.048;8.468;2023-05-21T07:26:10;22.80;72.80
10538;DHT22;5317;49.048;8.468;2023-05-21T07:28:37;22.80;72.30
10538;DHT22;5317;49.048;8.468;2023-05-21T07:31:04;22.90;71.90
10538;DHT22;5317;49.048;8.468;2023-05-21T07:33:31;23.00;72.70
10538;DHT22;5317;49.048;8.468;2023-05-21T07:35:58;23.00;72.00
10538;DHT22;5317;49.048;8.468;2023-05-21T07:38:25;23.10;71.80
10538;DHT22;5317;49.048;8.468;2023-05-21T07:40:53;23.20;71.10
10538;DHT22;5317;49.048;8.468;2023-05-21T07:43:20;23.20;71.00
10538;DHT22;5317;49.048;8.468;2023-05-21T07:45:47;23.30;71.10
10538;DHT22;5317;49.048;8.468;2023-05-21T07:48:13;23.30;70.90
10538;DHT22;5317;49.048;8.468;2023-05-21T07:50:40;23.40;70.90
10538;DHT22;5317;49.048;8.468;2023-05-21T07:53:07;23.40;71.10
10538;DHT22;5317;49.048;8.468;2023-05-21T07:55:34;23.50;71.00
10538;DHT22;5317;49.048;8.468;2023-05-21T07:58:02;23.50;70.70
10538;DHT22;5317;49.048;8.468;2023-05-21T08:00:41;23.50;70.80
10538;DHT22;5317;49.048;8.468;2023-05-21T08:03:09;23.70;70.40
10538;DHT22;5317;49.048;8.468;2023-05-21T08:05:36;23.70;70.60
10538;DHT22;5317;49.048;8.468;2023-05-21T08:08:03;23.90;70.50
10538;DHT22;5317;49.048;8.468;2023-05-21T08:10:32;23.90;70.10
10538;DHT22;5317;49.048;8.468;2023-05-21T08:12:59;24.10;69.80
10538;DHT22;5317;49.048;8.468;2023-05-21T08:15:27;24.10;69.30
10538;DHT22;5317;49.048;8.468;2023-05-21T08:17:54;24.10;70.10
10538;DHT22;5317;49.048;8.468;2023-05-21T08:20:21;24.20;69.10
10538;DHT22;5317;49.048;8.468;2023-05-21T08:22:48;24.30;69.20
10538;DHT22;5317;49.048;8.468;2023-05-21T08:25:15;24.40;69.70
10538;DHT22;5317;49.048;8.468;2023-05-21T08:27:42;24.50;69.20
10538;DHT22;5317;49.048;8.468;2023-05-21T08:30:09;24.50;68.50
10538;DHT22;5317;49.048;8.468;2023-05-21T08:32:38;24.60;67.90
10538;DHT22;5317;49.048;8.468;2023-05-21T08:35:06;24.60;67.10
10538;DHT22;5317;49.048;8.468;2023-05-21T08:37:34;24.60;67.10
10538;DHT22;5317;49.048;8.468;2023-05-21T08:40:01;24.70;67.20
10538;DHT22;5317;49.048;8.468;2023-05-21T08:42:38;24.80;67.30
10538;DHT22;5317;49.048;8.468;2023-05-21T08:45:07;24.80;67.90
10538;DHT22;5317;49.048;8.468;2023-05-21T08:47:35;24.90;67.70
10538;DHT22;5317;49.048;8.468;2023-05-21T08:50:04;25.10;68.10
10538;DHT22;5317;49.048;8.468;2023-05-21T08:52:33;25.30;67.40
10538;DHT22;5317;49.048;8.468;2023-05-21T08:55:00;25.40;67.10
10538;DHT22;5317;49.048;8.468;2023-05-21T08:57:30;25.50;67.30
10538;DHT22;5317;49.048;8.468;2023-05-21T08:59:57;25.60;66.30
10538;DHT22;5317;49.048;8.468;2023-05-21T09:02:24;25.60;65.50
10538;DHT22;5317;49.048;8.468;2023-05-21T09:04:53;25.70;66.00
10538;DHT22;5317;49.048;8.468;2023-05-21T09:07:25;25.80;65.70
10538;DHT22;5317;49.048;8.468;2023-05-21T09:09:55;25.90;64.90
10538;DHT22;5317;49.048;8.468;2023-05-21T09:12:23;26.00;65.10
10538;DHT22;5317;49.048;8.468;2023-05-21T09:14:50;26.20;64.90
10538;DHT22;5317;49.048;8.468;2023-05-21T09:17:17;26.20;64.10
10538;DHT22;5317;49.048;8.468;2023-05-21T09:20:07;26.30;63.90
10538;DHT22;5317;49.048;8.468;2023-05-21T09:22:41;26.40;64.20
10538;DHT22;5317;49.048;8.468;2023-05-21T09:25:09;26.50;63.30
10538;DHT22;5317;49.048;8.468;2023-05-21T09:27:37;26.50;63.50
10538;DHT22;5317;49.048;8.468;2023-05-21T09:30:09;26.60;63.40
10538;DHT22;5317;49.048;8.468;2023-05-21T09:32:36;26.60;63.30
10538;DHT22;5317;49.048;8.468;2023-05-21T09:35:07;26.70;63.40
10538;DHT22;5317;49.048;8.468;2023-05-21T09:37:38;26.70;63.40
10538;DHT22;5317;49.048;8.468;2023-05-21T09:40:14;26.70;62.40
10538;DHT22;5317;49.048;8.468;2023-05-21T09:42:44;26.70;62.00
10538;DHT22;5317;49.048;8.468;2023-05-21T09:45:11;26.80;62.60
10538;DHT22;5317;49.048;8.468;2023-05-21T09:47:41;26.90;62.80
10538;DHT22;5317;49.048;8.468;2023-05-21T09:50:10;26.90;62.60
10538;DHT22;5317;49.048;8.468;2023-05-21T09:52:37;26.90;62.00
10538;DHT22;5317;49.048;8.468;2023-05-21T09:55:05;27.00;61.90
10538;DHT22;5317;49.048;8.468;2023-05-21T09:57:39;27.10;62.10
10538;DHT22;5317;49.048;8.468;2023-05-21T10:00:08;27.10;61.60
10538;DHT22;5317;49.048;8.468;2023-05-21T10:02:40;27.20;61.10
10538;DHT22;5317;49.048;8.468;2023-05-21T10:05:11;27.20;61.00
10538;DHT22;5317;49.048;8.468;2023-05-21T10:07:41;27.30;61.20
10538;DHT22;5317;49.048;8.468;2023-05-21T10:10:12;27.30;61.30
10538;DHT22;5317;49.048;8.468;2023-05-21T10:12:43;27.40;60.50
10538;DHT22;5317;49.048;8.468;2023-05-21T10:15:16;27.50;60.50
10538;DHT22;5317;49.048;8.468;2023-05-21T10:17:46;27.70;61.00
10538;DHT22;5317;49.048;8.468;2023-05-21T10:20:14;27.80;60.40
10538;DHT22;5317;49.048;8.468;2023-05-21T10:22:43;28.00;59.40
10538;DHT22;5317;49.048;8.468;2023-05-21T10:25:12;28.00;59.20
10538;DHT22;5317;49.048;8.468;2023-05-21T10:27:41;28.10;59.30
10538;DHT22;5317;49.048;8.468;2023-05-21T10:30:09;28.20;59.10
10538;DHT22;5317;49.048;8.468;2023-05-21T10:32:39;28.40;59.00
10538;DHT22;5317;49.048;8.468;2023-05-21T10:35:07;28.50;58.70
10538;DHT22;5317;49.048;8.468;2023-05-21T10:37:35;28.60;58.40
10538;DHT22;5317;49.048;8.468;2023-05-21T10:40:03;28.70;58.40
10538;DHT22;5317;49.048;8.468;2023-05-21T10:42:57;28.70;58.00
10538;DHT22;5317;49.048;8.468;2023-05-21T10:45:37;28.80;56.40
10538;DHT22;5317;49.048;8.468;2023-05-21T10:48:24;28.80;57.00
10538;DHT22;5317;49.048;8.468;2023-05-21T10:51:17;28.90;55.60
10538;DHT22;5317;49.048;8.468;2023-05-21T10:53:55;28.90;54.80
10538;DHT22;5317;49.048;8.468;2023-05-21T10:56:28;28.90;54.80
10538;DHT22;5317;49.048;8.468;2023-05-21T10:59:10;28.90;55.20
10538;DHT22;5317;49.048;8.468;2023-05-21T11:01:40;29.00;55.10
10538;DHT22;5317;49.048;8.468;2023-05-21T11:04:07;29.10;55.30
10538;DHT22;5317;49.048;8.468;2023-05-21T11:06:36;29.10;54.70
10538;DHT22;5317;49.048;8.468;2023-05-21T11:09:11;29.10;54.50
10538;DHT22;5317;49.048;8.468;2023-05-21T11:11:39;29.10;53.60
10538;DHT22;5317;49.048;8.468;2023-05-21T11:14:31;29.20;54.10
10538;DHT22;5317;49.048;8.468;2023-05-21T11:17:01;29.20;53.80
10538;DHT22;5317;49.048;8.468;2023-05-21T11:19:34;29.20;54.30
10538;DHT22;5317;49.048;8.468;2023-05-21T11:22:07;29.30;54.30
10538;DHT22;5317;49.048;8.468;2023-05-21T11:24:36;29.30;54.20
10538;DHT22;5317;49.048;8.468;2023-05-21T11:27:04;29.30;53.90
10538;DHT22;5317;49.048;8.468;2023-05-21T11:29:47;29.30;53.60
10538;DHT22;5317;49.048;8.468;2023-05-21T11:32:15;29.30;53.20
10538;DHT22;5317;49.048;8.468;2023-05-21T11:34:46;29.20;53.20
10538;DHT22;5317;49.048;8.468;2023-05-21T11:37:32;29.30;54.10
10538;DHT22;5317;49.048;8.468;2023-05-21T11:40:32;29.30;52.50
10538;DHT22;5317;49.048;8.468;2023-05-21T11:43:01;29.20;52.30
10538;DHT22;5317;49.048;8.468;2023-05-21T11:45:31;29.20;52.90
10538;DHT22;5317;49.048;8.468;2023-05-21T11:47:59;29.20;53.30
10538;DHT22;5317;49.048;8.468;2023-05-21T11:50:26;29.20;53.10
10538;DHT22;5317;49.048;8.468;2023-05-21T11:52:55;29.30;53.00
10538;DHT22;5317;49.048;8.468;2023-05-21T11:55:24;29.30;53.60
10538;DHT22;5317;49.048;8.468;2023-05-21T11:57:52;29.30;53.50
10538;DHT22;5317;49.048;8.468;2023-05-21T12:00:19;29.30;54.00
10538;DHT22;5317;49.048;8.468;2023-05-21T12:02:49;29.40;54.00
10538;DHT22;5317;49.048;8.468;2023-05-21T12:05:16;29.50;54.10
10538;DHT22;5317;49.048;8.468;2023-05-21T12:07:46;29.50;54.00
10538;DHT22;5317;49.048;8.468;2023-05-21T12:10:14;29.60;53.80
10538;DHT22;5317;49.048;8.468;2023-05-21T12:12:41;29.60;53.40
10538;DHT22;5317;49.048;8.468;2023-05-21T12:15:09;29.60;53.10
10538;DHT22;5317;49.048;8.468;2023-05-21T12:17:37;29.70;52.80
10538;DHT22;5317;49.048;8.468;2023-05-21T12:20:08;29.70;52.90
10538;DHT22;5317;49.048;8.468;2023-05-21T12:22:40;29.70;52.20
10538;DHT22;5317;49.048;8.468;2023-05-21T12:25:08;29.70;52.60
10538;DHT22;5317;49.048;8.468;2023-05-21T12:27:36;29.70;52.50
10538;DHT22;5317;49.048;8.468;2023-05-21T12:30:04;29.70;52.50
10538;DHT22;5317;49.048;8.468;2023-05-21T12:32:32;29.80;52.60
10538;DHT22;5317;49.048;8.468;2023-05-21T12:34:59;29.80;52.50
10538;DHT22;5317;49.048;8.468;2023-05-21T12:37:29;29.80;52.50
10538;DHT22;5317;49.048;8.468;2023-05-21T12:39:58;29.80;52.40
10538;DHT22;5317;49.048;8.468;2023-05-21T12:42:26;29.80;52.20
10538;DHT22;5317;49.048;8.468;2023-05-21T12:44:55;29.80;52.50
10538;DHT22;5317;49.048;8.468;2023-05-21T12:47:23;29.80;51.90
10538;DHT22;5317;49.048;8.468;2023-05-21T12:49:53;29.80;52.00
10538;DHT22;5317;49.048;8.468;2023-05-21T12:52:21;29.80;52.30
10538;DHT22;5317;49.048;8.468;2023-05-21T12:54:51;29.80;52.00
10538;DHT22;5317;49.048;8.468;2023-05-21T12:57:20;29.90;52.60
10538;DHT22;5317;49.048;8.468;2023-05-21T12:59:49;29.90;52.90
10538;DHT22;5317;49.048;8.468;2023-05-21T13:02:20;29.90;52.30
10538;DHT22;5317;49.048;8.468;2023-05-21T13:04:48;30.00;51.40
10538;DHT22;5317;49.048;8.468;2023-05-21T13:07:17;29.90;51.30
10538;DHT22;5317;49.048;8.468;2023-05-21T13:09:44;30.00;50.90
10538;DHT22;5317;49.048;8.468;2023-05-21T13:12:12;29.90;50.50
10538;DHT22;5317;49.048;8.468;2023-05-21T13:14:39;29.90;50.80
10538;DHT22;5317;49.048;8.468;2023-05-21T13:17:06;29.90;50.40
10538;DHT22;5317;49.048;8.468;2023-05-21T13:19:33;29.90;50.40
10538;DHT22;5317;49.048;8.468;2023-05-21T13:22:00;30.00;50.30
10538;DHT22;5317;49.048;8.468;2023-05-21T13:24:27;30.00;51.10
10538;DHT22;5317;49.048;8.468;2023-05-21T13:26:53;30.10;50.60
10538;DHT22;5317;49.048;8.468;2023-05-21T13:29:22;30.00;50.00
10538;DHT22;5317;49.048;8.468;2023-05-21T13:31:49;30.10;50.50
10538;DHT22;5317;49.048;8.468;2023-05-21T13:34:16;30.00;50.10
10538;DHT22;5317;49.048;8.468;2023-05-21T13:36:42;30.00;50.10
10538;DHT22;5317;49.048;8.468;2023-05-21T13:39:09;30.00;50.00
10538;DHT22;5317;49.048;8.468;2023-05-21T13:41:36;30.00;50.10
10538;DHT22;5317;49.048;8.468;2023-05-21T13:44:04;30.00;50.90
10538;DHT22;5317;49.048;8.468;2023-05-21T13:46:32;29.90;50.10
10538;DHT22;5317;49.048;8.468;2023-05-21T13:49:04;29.90;50.40
10538;DHT22;5317;49.048;8.468;2023-05-21T13:51:31;29.90;50.50
10538;DHT22;5317;49.048;8.468;2023-05-21T13:53:57;29.90;50.00
10538;DHT22;5317;49.048;8.468;2023-05-21T13:56:24;29.90;50.00
10538;DHT22;5317;49.048;8.468;2023-05-21T13:58:51;29.90;49.20
10538;DHT22;5317;49.048;8.468;2023-05-21T14:01:18;29.80;50.50
10538;DHT22;5317;49.048;8.468;2023-05-21T14:03:47;29.80;50.40
10538;DHT22;5317;49.048;8.468;2023-05-21T14:06:13;29.80;49.80
10538;DHT22;5317;49.048;8.468;2023-05-21T14:08:40;29.70;48.60
10538;DHT22;5317;49.048;8.468;2023-05-21T14:11:07;29.60;49.30
10538;DHT22;5317;49.048;8.468;2023-05-21T14:13:34;29.60;49.60
10538;DHT22;5317;49.048;8.468;2023-05-21T14:16:01;29.60;48.80
10538;DHT22;5317;49.048;8.468;2023-05-21T14:18:28;29.60;49.70
10538;DHT22;5317;49.048;8.468;2023-05-21T14:20:56;29.60;49.50
10538;DHT22;5317;49.048;8.468;2023-05-21T14:23:23;29.60;50.30
10538;DHT22;5317;49.048;8.468;2023-05-21T14:25:50;29.60;49.60
10538;DHT22;5317;49.048;8.468;2023-05-21T14:28:17;29.70;49.70
10538;DHT22;5317;49.048;8.468;2023-05-21T14:30:44;29.70;49.90
10538;DHT22;5317;49.048;8.468;2023-05-21T14:33:10;29.80;50.60
10538;DHT22;5317;49.048;8.468;2023-05-21T14:35:37;29.80;50.60
10538;DHT22;5317;49.048;8.468;2023-05-21T14:38:07;29.90;50.00
10538;DHT22;5317;49.048;8.468;2023-05-21T14:40:34;29.90;49.40
10538;DHT22;5317;49.048;8.468;2023-05-21T14:43:01;29.90;49.10
10538;DHT22;5317;49.048;8.468;2023-05-21T14:45:28;30.00;49.10
10538;DHT22;5317;49.048;8.468;2023-05-21T14:47:57;30.10;48.90
10538;DHT22;5317;49.048;8.468;2023-05-21T14:50:24;30.20;49.50
10538;DHT22;5317;49.048;8.468;2023-05-21T14:52:51;30.30;49.70
10538;DHT22;5317;49.048;8.468;2023-05-21T14:55:19;30.30;48.90
10538;DHT22;5317;49.048;8.468;2023-05-21T14:57:47;30.50;48.90
10538;DHT22;5317;49.048;8.468;2023-05-21T15:00:14;30.50;47.70
10538;DHT22;5317;49.048;8.468;2023-05-21T15:02:41;30.60;47.60
10538;DHT22;5317;49.048;8.468;2023-05-21T15:05:08;30.70;48.30
10538;DHT22;5317;49.048;8.468;2023-05-21T15:07:35;30.80;48.10
10538;DHT22;5317;49.048;8.468;2023-05-21T15:10:02;30.90;47.70
10538;DHT22;5317;49.048;8.468;2023-05-21T15:12:30;30.90;47.80
10538;DHT22;5317;49.048;8.468;2023-05-21T15:14:57;31.00;47.00
10538;DHT22;5317;49.048;8.468;2023-05-21T15:17:24;31.10;46.80
10538;DHT22;5317;49.048;8.468;2023-05-21T15:19:52;31.20;47.40
10538;DHT22;5317;49.048;8.468;2023-05-21T15:22:19;31.30;47.90
10538;DHT22;5317;49.048;8.468;2023-05-21T15:24:46;31.30;48.20
10538;DHT22;5317;49.048;8.468;2023-05-21T15:27:13;31.30;48.10
10538;DHT22;5317;49.048;8.468;2023-05-21T15:29:41;31.30;48.00
10538;DHT22;5317;49.048;8.468;2023-05-21T15:32:10;31.30;48.40
10538;DHT22;5317;49.048;8.468;2023-05-21T15:34:37;31.30;48.20
10538;DHT22;5317;49.048;8.468;2023-05-21T15:37:04;31.30;47.50
10538;DHT22;5317;49.048;8.468;2023-05-21T15:39:31;31.30;47.30
10538;DHT22;5317;49.048;8.468;2023-05-21T15:41:58;31.20;48.00
10538;DHT22;5317;49.048;8.468;2023-05-21T15:44:24;31.20;48.00
10538;DHT22;5317;49.048;8.468;2023-05-21T15:46:53;31.20;47.70
10538;DHT22;5317;49.048;8.468;2023-05-21T15:49:20;31.10;47.70
10538;DHT22;5317;49.048;8.468;2023-05-21T15:51:47;31.10;47.70